Time;durP1;ratioP1;P1;durP2;ratioP2;P2;SDS_P1;SDS_P2;PMS_P1;PMS_P2;Temp;Humidity;BMP_temperature;BMP_pressure;BME280_temperature;BME280_humidity;BME280_pressure;Samples;Min_cycle;Max_cycle;Signal;HPM_P1;HPM_P2
2022/09/19 00:01:46;;;;;;;1.73;0.80;;;10.80;99.90;;;10.74;100.00;101051.44;5145586;28;20042;-68
2022/09/19 00:04:22;;;;;;;3.72;1.23;;;10.80;99.90;;;10.75;100.00;101063.63;5146514;28;20508;-68
2022/09/19 00:06:55;;;;;;;3.50;1.10;;;10.80;99.90;;;10.76;100.00;101065.44;5146729;28;20043;-68
2022/09/19 00:09:33;;;;;;;6.35;1.25;;;10.80;99.90;;;10.78;100.00;101061.16;5145911;28;20049;-67
2022/09/19 00:12:06;;;;;;;3.17;0.82;;;10.90;99.90;;;10.78;100.00;101063.78;5147238;28;20053;-67
2022/09/19 00:14:38;;;;;;;2.70;1.27;;;10.90;99.90;;;10.79;100.00;101062.94;5146469;28;20043;-67
2022/09/19 00:17:10;;;;;;;5.40;1.17;;;10.90;99.90;;;10.77;100.00;101062.88;5146436;28;20046;-67
2022/09/19 00:19:44;;;;;;;2.20;0.77;;;10.90;99.90;;;10.78;100.00;101069.00;5145929;28;20158;-70
2022/09/19 00:22:16;;;;;;;4.22;0.90;;;10.90;99.90;;;10.80;100.00;101069.94;5145201;28;20146;-68
2022/09/19 00:24:49;;;;;;;2.55;0.88;;;10.90;99.90;;;10.79;100.00;101068.16;5146155;28;20054;-67
2022/09/19 00:27:25;;;;;;;1.23;0.77;;;10.90;99.90;;;10.79;100.00;101071.66;5146419;28;20047;-67
2022/09/19 00:29:58;;;;;;;4.50;0.90;;;10.90;99.90;;;10.82;100.00;101076.06;5144262;28;20090;-68
2022/09/19 00:32:31;;;;;;;1.90;0.93;;;10.90;99.90;;;10.87;100.00;101064.09;5144876;28;20055;-67
2022/09/19 00:35:06;;;;;;;2.88;1.00;;;11.00;99.90;;;10.89;100.00;101067.69;5140073;28;20066;-67
2022/09/19 00:37:39;;;;;;;1.92;0.82;;;11.00;99.90;;;10.93;100.00;101066.94;5141365;28;20604;-67
2022/09/19 00:40:11;;;;;;;4.85;1.08;;;11.00;99.90;;;10.95;100.00;101073.09;5122959;28;20154;-69
2022/09/19 00:42:43;;;;;;;3.00;0.82;;;11.00;99.90;;;10.94;100.00;101066.13;5124455;28;20043;-68
2022/09/19 00:45:17;;;;;;;2.63;0.70;;;11.00;99.90;;;10.93;100.00;101069.56;5124866;28;20043;-67
2022/09/19 00:47:53;;;;;;;3.28;1.05;;;11.00;99.90;;;10.93;100.00;101069.56;5127010;28;20058;-67
2022/09/19 00:50:30;;;;;;;3.25;1.05;;;11.00;99.90;;;10.94;100.00;101073.06;5133968;28;20451;-68
2022/09/19 00:53:06;;;;;;;1.95;1.17;;;11.00;99.90;;;10.94;100.00;101073.06;5145181;28;20038;-68
2022/09/19 00:55:39;;;;;;;4.18;0.77;;;11.00;99.90;;;10.96;100.00;101074.03;5136610;28;20523;-68
2022/09/19 00:58:20;;;;;;;3.15;0.98;;;11.00;99.90;;;10.93;100.00;101069.56;5124397;28;20075;-67
2022/09/19 01:00:52;;;;;;;4.57;1.00;;;11.00;99.90;;;10.92;100.00;101077.34;5125951;28;20040;-69
2022/09/19 01:03:25;;;;;;;4.60;1.15;;;11.00;99.90;;;10.90;100.00;101079.91;5142881;28;20051;-69
2022/09/19 01:06:14;;;;;;;3.78;1.00;;;11.00;99.90;;;10.87;100.00;101080.66;5131042;28;20046;-67
2022/09/19 01:09:03;;;;;;;2.50;0.85;;;11.00;99.90;;;10.88;100.00;101082.41;5143235;28;20134;-67
2022/09/19 01:12:16;;;;;;;1.50;0.98;;;10.90;99.90;;;10.87;100.00;101088.47;5128240;28;20054;-70
2022/09/19 01:15:11;;;;;;;3.17;0.82;;;11.00;99.90;;;10.88;100.00;101089.34;5118751;28;20516;-67
2022/09/19 01:17:48;;;;;;;2.83;0.70;;;11.00;99.90;;;10.89;100.00;101093.78;5141184;28;20043;-68
2022/09/19 01:21:37;;;;;;;2.75;1.00;;;11.00;99.90;;;10.92;100.00;101092.97;5125189;28;20412;-69
2022/09/19 01:24:41;;;;;;;3.55;0.90;;;11.00;99.90;;;10.95;100.00;101091.38;5124507;28;20390;-67
2022/09/19 01:27:43;;;;;;;1.42;0.80;;;11.00;99.90;;;10.98;100.00;101090.59;5116792;28;20495;-67
2022/09/19 01:30:18;;;;;;;4.47;1.00;;;11.00;99.90;;;10.97;100.00;101092.34;5142458;28;20047;-68
2022/09/19 01:32:58;;;;;;;4.38;1.13;;;11.10;99.90;;;10.93;100.00;101100.84;5142756;28;20042;-67
2022/09/19 01:35:37;;;;;;;3.08;0.93;;;11.00;99.90;;;10.95;100.00;101099.19;5134892;28;20050;-68
2022/09/19 01:38:13;;;;;;;2.20;1.00;;;11.00;99.90;;;10.96;100.00;101097.50;5122809;28;20047;-67
2022/09/19 01:40:46;;;;;;;5.53;1.50;;;11.00;99.90;;;10.98;100.00;101103.66;5121982;28;20043;-67
2022/09/19 01:43:20;;;;;;;5.15;1.33;;;11.00;99.90;;;10.97;100.00;101101.88;5139714;28;20046;-68
2022/09/19 01:46:00;;;;;;;2.55;1.33;;;11.00;99.90;;;10.99;100.00;101115.84;5140362;28;20046;-69
2022/09/19 01:48:51;;;;;;;2.88;1.00;;;11.00;99.90;;;10.99;100.00;101106.31;5142059;28;20388;-67
2022/09/19 01:51:30;;;;;;;1.85;0.80;;;11.00;99.90;;;10.99;100.00;101097.59;5136814;28;20422;-68
2022/09/19 01:54:26;;;;;;;3.60;0.98;;;11.10;99.90;;;11.00;100.00;101102.88;5141049;28;20035;-67
2022/09/19 01:57:14;;;;;;;5.07;1.25;;;11.10;99.90;;;10.98;100.00;101109.75;5130207;28;20061;-69
2022/09/19 02:00:06;;;;;;;2.83;1.02;;;11.10;99.90;;;10.99;100.00;101106.31;5129001;28;20518;-68
2022/09/19 02:03:02;;;;;;;3.75;1.10;;;11.10;99.90;;;11.00;100.00;101115.03;5137916;28;20401;-69
2022/09/19 02:05:46;;;;;;;3.88;1.20;;;11.00;99.90;;;10.99;100.00;101111.53;5124539;28;20043;-69
2022/09/19 02:08:28;;;;;;;2.20;0.98;;;11.10;99.90;;;10.99;100.00;101115.84;5143150;28;20198;-67
2022/09/19 02:11:05;;;;;;;4.82;1.17;;;11.10;99.90;;;10.95;100.00;101119.16;5142083;28;20090;-67
2022/09/19 02:13:44;;;;;;;3.45;1.00;;;11.00;99.90;;;10.91;100.00;101118.19;5142066;28;20050;-67
2022/09/19 02:16:23;;;;;;;4.10;1.10;;;11.00;99.90;;;10.87;100.00;101111.94;5133946;28;20381;-67
2022/09/19 02:19:00;;;;;;;4.25;1.85;;;11.00;99.90;;;10.89;100.00;101117.25;5121408;28;20055;-69
2022/09/19 02:21:39;;;;;;;2.65;1.10;;;11.00;99.90;;;10.89;100.00;101117.25;5131635;28;20122;-68
2022/09/19 02:24:17;;;;;;;5.25;1.05;;;11.00;99.90;;;10.89;100.00;101119.84;5140930;28;20122;-68
2022/09/19 02:26:52;;;;;;;3.25;1.02;;;11.00;99.90;;;10.86;100.00;101119.72;5142894;28;20057;-67
2022/09/19 02:29:32;;;;;;;2.80;0.90;;;11.00;99.90;;;10.86;100.00;101119.72;5141159;28;20520;-68
2022/09/19 02:32:09;;;;;;;3.38;1.17;;;11.00;99.90;;;10.85;100.00;101120.56;5141415;28;20522;-68
2022/09/19 02:34:44;;;;;;;2.78;1.20;;;10.90;99.90;;;10.85;100.00;101124.03;5139255;28;20050;-68
2022/09/19 02:37:22;;;;;;;1.85;0.90;;;10.90;99.90;;;10.86;100.00;101128.41;5141650;28;20049;-68
2022/09/19 02:40:01;;;;;;;4.50;1.13;;;10.90;99.90;;;10.85;100.00;101124.03;5125584;28;20416;-69
2022/09/19 02:42:56;;;;;;;4.03;1.05;;;10.90;99.90;;;10.86;100.00;101124.94;5137602;28;20066;-67
2022/09/19 02:45:35;;;;;;;5.88;1.17;;;10.90;99.90;;;10.87;100.00;101127.59;5122495;28;20083;-67
2022/09/19 02:48:20;;;;;;;1.45;0.82;;;10.90;99.90;;;10.90;100.00;101126.84;5123912;28;20059;-69
2022/09/19 02:51:02;;;;;;;4.80;1.42;;;11.00;99.90;;;10.90;100.00;101123.34;5121798;28;20050;-68
2022/09/19 02:53:39;;;;;;;;;;;11.00;99.90;;;10.89;100.00;101130.28;5122437;29;20146;-68
2022/09/19 02:56:16;;;;;;;2.28;0.80;;;11.00;99.90;;;10.90;100.00;101133.78;5122414;29;19922;-68
2022/09/19 02:58:56;;;;;;;3.28;0.80;;;11.00;99.90;;;10.90;100.00;101136.38;5123299;28;20044;-68
2022/09/19 03:01:36;;;;;;;4.18;1.23;;;11.00;99.90;;;10.92;100.00;101140.81;5122049;29;20070;-67
2022/09/19 03:04:15;;;;;;;3.10;1.13;;;11.00;99.90;;;10.92;100.00;101139.94;5121968;28;20411;-68
2022/09/19 03:07:06;;;;;;;3.20;0.90;;;11.00;99.90;;;10.92;100.00;101140.81;5122074;28;20436;-67
2022/09/19 03:09:42;;;;;;;3.92;0.90;;;11.00;99.90;;;10.94;100.00;101146.97;5121531;29;20054;-68
2022/09/19 03:12:22;;;;;;;5.72;1.23;;;11.00;99.90;;;10.96;100.00;101145.34;5122024;29;20517;-67
2022/09/19 03:14:58;;;;;;;2.30;1.02;;;11.00;99.90;;;10.96;100.00;101145.34;5122050;29;20043;-69
2022/09/19 03:17:38;;;;;;;2.53;1.00;;;11.00;99.90;;;10.97;100.00;101154.94;5122344;29;20086;-67
2022/09/19 03:20:11;;;;;;;3.63;0.82;;;11.00;99.90;;;10.97;100.00;101148.84;5121616;28;20051;-67
2022/09/19 03:22:49;;;;;;;2.22;0.82;;;11.00;99.90;;;10.97;100.00;101148.84;5121783;28;20126;-67
2022/09/19 03:25:21;;;;;;;4.90;0.93;;;11.00;99.90;;;10.97;100.00;101149.72;5138102;28;20138;-69
2022/09/19 03:27:55;;;;;;;3.30;0.90;;;11.00;99.90;;;10.97;100.00;101152.31;5123379;28;20046;-67
2022/09/19 03:30:29;;;;;;;2.42;1.17;;;11.00;99.90;;;11.00;100.00;101155.03;5120972;29;20043;-69
2022/09/19 03:33:01;;;;;;;3.45;1.00;;;11.10;99.90;;;11.00;100.00;101157.66;5122825;29;20523;-68
2022/09/19 03:35:33;;;;;;;3.40;1.10;;;11.10;99.90;;;11.02;100.00;101163.84;5121975;29;20051;-67
2022/09/19 03:38:08;;;;;;;1.55;0.82;;;11.00;99.90;;;11.06;100.00;101165.72;5121936;29;20047;-68
2022/09/19 03:40:40;;;;;;;4.85;0.93;;;11.10;99.90;;;11.05;100.00;101163.94;5122612;28;20485;-68
2022/09/19 03:43:12;;;;;;;4.30;0.90;;;11.10;99.90;;;11.05;100.00;101174.38;5123206;28;20472;-68
2022/09/19 03:45:44;;;;;;;2.72;0.93;;;11.10;99.90;;;11.04;100.00;101170.00;5147852;23;20071;-82
2022/09/19 03:48:17;;;;;;;6.50;1.65;;;11.10;99.90;;;11.04;100.00;101164.78;5144157;28;20071;-82
2022/09/19 03:50:50;;;;;;;3.67;1.00;;;11.10;99.90;;;11.05;100.00;101163.94;5163547;28;20093;-82
2022/09/19 03:53:23;;;;;;;1.38;0.88;;;11.10;99.90;;;11.05;100.00;101169.16;5148874;28;20058;-81
2022/09/19 03:55:56;;;;;;;3.85;1.42;;;11.10;99.90;;;11.07;100.00;101164.88;5144411;28;20134;-82
2022/09/19 03:58:30;;;;;;;3.90;1.00;;;11.10;99.90;;;11.08;100.00;101174.50;5127987;29;20145;-83
2022/09/19 04:01:03;;;;;;;;;;;11.10;99.90;;;11.07;100.00;101172.69;5129439;29;20432;-82
2022/09/19 04:03:37;;;;;;;5.63;1.60;;;11.10;99.90;;;11.09;100.00;101178.91;5129608;28;19926;-82
2022/09/19 04:06:11;;;;;;;3.95;1.15;;;11.10;99.90;;;11.11;100.00;101177.22;5131761;28;20122;-82
2022/09/19 04:08:45;;;;;;;3.67;1.10;;;11.10;99.90;;;11.12;100.00;101180.72;5132427;29;20044;-83
2022/09/19 04:11:17;;;;;;;2.38;1.00;;;11.10;99.90;;;11.11;100.00;101185.03;5131208;28;20043;-82
2022/09/19 04:13:51;;;;;;;4.95;1.40;;;11.10;99.90;;;11.09;100.00;101173.69;5132247;29;20047;-82
2022/09/19 04:16:25;;;;;;;4.15;1.23;;;11.10;99.90;;;11.07;100.00;101177.03;5131932;29;20047;-82
2022/09/19 04:18:57;;;;;;;3.20;1.00;;;11.10;99.90;;;11.05;100.00;101179.59;5132155;29;20056;-82
2022/09/19 04:21:47;;;;;;;4.32;1.30;;;11.10;99.90;;;11.05;100.00;101184.81;5133417;29;20122;-83
2022/09/19 04:24:38;;;;;;;3.92;1.17;;;11.10;99.90;;;11.07;100.00;101187.47;5132124;28;20051;-83
2022/09/19 04:27:13;;;;;;;2.33;1.00;;;11.10;99.90;;;11.10;100.00;101188.50;5133630;29;20499;-82
2022/09/19 04:29:46;;;;;;;2.45;1.00;;;11.10;99.90;;;11.10;100.00;101200.66;5131942;29;20710;-82
2022/09/19 04:32:21;;;;;;;2.90;0.85;;;11.10;99.90;;;11.10;100.00;101198.03;5118363;28;20112;-81
2022/09/19 04:34:57;;;;;;;3.55;1.17;;;11.10;99.90;;;11.10;100.00;101198.94;5112562;29;20047;-82
2022/09/19 04:37:31;;;;;;;4.93;1.30;;;11.10;99.90;;;11.07;100.00;101201.41;5112414;29;20051;-83
2022/09/19 04:40:14;;;;;;;5.30;1.13;;;11.10;99.90;;;11.04;100.00;101198.69;5110538;29;20174;-82
2022/09/19 04:42:46;;;;;;;4.30;1.30;;;11.10;99.90;;;11.02;100.00;101195.13;5112107;29;20052;-83
2022/09/19 04:45:20;;;;;;;4.95;1.15;;;11.10;99.90;;;11.03;100.00;101201.25;5113650;29;20050;-83
2022/09/19 04:48:19;;;;;;;4.50;1.13;;;11.10;99.90;;;11.02;100.00;101213.41;5113935;29;20056;-82
2022/09/19 04:50:53;;;;;;;3.15;0.90;;;11.10;99.90;;;11.04;100.00;101208.25;5113175;29;20075;-83
2022/09/19 04:53:27;;;;;;;;;;;11.10;99.90;;;11.05;100.00;101210.91;5114992;29;20102;-82
2022/09/19 04:56:03;;;;;;;3.55;1.05;;;11.10;99.90;;;11.06;100.00;101204.84;5130073;29;19969;-84
2022/09/19 04:58:40;;;;;;;3.42;1.17;;;11.10;99.90;;;11.08;100.00;101216.25;5114960;29;20059;-83
2022/09/19 05:01:15;;;;;;;5.25;1.58;;;11.10;99.90;;;11.09;100.00;101210.19;5114964;29;20044;-82
2022/09/19 05:03:48;;;;;;;5.97;1.20;;;11.20;99.90;;;11.07;100.00;101218.78;5115767;29;20051;-83
2022/09/19 05:06:21;;;;;;;3.80;1.45;;;11.10;99.90;;;11.02;100.00;101213.41;5111745;29;20134;-83
2022/09/19 05:08:53;;;;;;;3.90;1.63;;;11.10;99.90;;;10.97;100.00;101217.53;5109670;29;20048;-84
2022/09/19 05:11:33;;;;;;;4.07;1.48;;;11.10;99.90;;;10.96;100.00;101220.97;5110132;29;20454;-83
2022/09/19 05:14:06;;;;;;;3.47;1.08;;;11.00;99.90;;;10.98;100.00;101227.13;5109111;29;20570;-81
2022/09/19 05:16:42;;;;;;;3.78;1.35;;;11.00;99.90;;;11.00;100.00;101224.59;5108878;29;20529;-83
2022/09/19 05:19:14;;;;;;;6.43;1.15;;;11.00;99.90;;;11.00;100.00;101219.38;5110035;29;20058;-83
2022/09/19 05:21:47;;;;;;;2.22;1.35;;;11.00;99.90;;;11.03;100.00;101228.22;5109788;29;20166;-83
2022/09/19 05:24:19;;;;;;;3.55;1.00;;;11.00;99.90;;;11.03;100.00;101233.44;5109025;29;20142;-82
2022/09/19 05:26:56;;;;;;;1.85;0.95;;;11.10;99.90;;;11.06;100.00;101237.88;5110879;29;20052;-83
2022/09/19 05:29:28;;;;;;;3.03;1.38;;;11.10;99.90;;;11.08;100.00;101242.34;5110635;29;20051;-83
2022/09/19 05:32:09;;;;;;;3.92;1.23;;;11.10;99.90;;;11.07;100.00;101245.75;5118723;28;20395;-83
2022/09/19 05:34:47;;;;;;;5.55;1.27;;;11.10;99.90;;;11.08;100.00;101247.56;5109864;29;20445;-84
2022/09/19 05:37:51;;;;;;;2.67;1.20;;;11.10;99.90;;;11.12;100.00;101249.44;5097836;29;20055;-82
2022/09/19 05:40:45;;;;;;;3.50;1.10;;;11.10;99.90;;;11.16;100.00;101255.69;5109512;29;20052;-84
2022/09/19 05:43:27;;;;;;;4.45;0.82;;;11.20;99.90;;;11.19;100.00;101252.28;5108702;29;20048;-85
2022/09/19 05:46:00;;;;;;;1.55;1.08;;;11.20;99.90;;;11.21;100.00;101261.06;5108845;29;20055;-84
2022/09/19 05:48:35;;;;;;;1.90;0.88;;;11.20;99.90;;;11.24;100.00;101261.22;5110275;29;20502;-85
2022/09/19 05:51:07;;;;;;;1.45;0.82;;;11.20;99.90;;;11.26;100.00;101256.94;5109376;29;20060;-84
2022/09/19 05:53:54;;;;;;;2.20;1.20;;;11.30;99.90;;;11.30;100.00;101270.16;5108598;29;20051;-85
2022/09/19 05:56:50;;;;;;;4.78;1.35;;;11.30;99.90;;;11.29;100.00;101272.72;5092717;29;20071;-86
2022/09/19 05:59:25;;;;;;;3.25;0.88;;;11.30;99.90;;;11.33;100.00;101274.59;5090440;29;20075;-86
2022/09/19 06:02:01;;;;;;;2.35;1.20;;;11.30;99.90;;;11.34;100.00;101279.00;5102394;29;20117;-86
2022/09/19 06:04:46;;;;;;;4.18;1.10;;;11.30;99.90;;;11.34;100.00;101286.81;5107745;29;20056;-84
2022/09/19 06:07:23;;;;;;;2.30;1.55;;;11.30;99.90;;;11.36;100.00;101286.06;5127767;29;20039;-84
2022/09/19 06:09:56;;;;;;;2.10;1.02;;;11.40;99.90;;;11.41;100.00;101288.88;5106641;29;20060;-82
2022/09/19 06:12:30;;;;;;;4.53;1.40;;;11.40;99.90;;;11.42;100.00;101280.19;5111083;29;20103;-84
2022/09/19 06:15:04;;;;;;;3.08;1.50;;;11.40;99.90;;;11.43;100.00;101297.63;5110610;29;20082;-83
2022/09/19 06:17:37;;;;;;;4.38;0.98;;;11.50;99.90;;;11.44;100.00;101288.09;5110906;29;20051;-84
2022/09/19 06:20:19;;;;;;;5.00;0.90;;;11.40;99.90;;;11.46;100.00;101292.53;5110817;29;20139;-84
2022/09/19 06:23:03;;;;;;;4.72;1.10;;;11.50;99.90;;;11.50;100.00;101299.66;5114410;29;20056;-84
2022/09/19 06:25:38;;;;;;;2.65;0.98;;;11.50;99.90;;;11.58;100.00;101302.56;5112366;29;20302;-85
2022/09/19 06:28:12;;;;;;;5.90;1.10;;;11.60;99.90;;;11.60;100.00;101296.56;5113016;29;20082;-83
2022/09/19 06:30:54;;;;;;;4.13;1.80;;;11.60;99.90;;;11.75;100.00;101309.34;5109073;29;20115;-86
2022/09/19 06:33:29;;;;;;;2.72;0.93;;;11.70;99.90;;;11.87;100.00;101301.13;5112410;29;20054;-77
2022/09/19 06:36:05;;;;;;;5.40;1.02;;;11.80;99.90;;;12.57;100.00;101319.31;5100256;29;20127;-76
2022/09/19 06:38:40;;;;;;;3.13;0.90;;;12.60;99.90;;;13.16;100.00;101316.94;5092267;29;20115;-82
2022/09/19 06:41:30;;;;;;;3.35;0.98;;;13.20;99.90;;;13.49;100.00;101319.78;5112163;29;20514;-83
2022/09/19 06:44:15;;;;;;;4.38;1.15;;;13.60;99.90;;;13.81;100.00;101323.38;5112682;28;20114;-83
2022/09/19 06:47:17;;;;;;;7.63;1.52;;;14.00;99.90;;;14.09;100.00;101327.72;5135913;28;20063;-82
2022/09/19 06:49:59;;;;;;;5.55;1.20;;;14.30;99.90;;;14.23;100.00;101326.38;5130503;29;20051;-82
2022/09/19 06:52:47;;;;;;;6.82;1.10;;;14.50;99.90;;;14.32;100.00;101329.25;5127928;29;20043;-82
2022/09/19 06:55:19;;;;;;;5.30;1.05;;;14.60;99.90;;;14.29;100.00;101329.19;5127773;29;20053;-83
2022/09/19 06:57:56;;;;;;;9.93;1.40;;;14.60;99.90;;;14.31;100.00;101332.72;5128271;29;20078;-82
2022/09/19 07:00:31;;;;;;;5.90;1.48;;;14.50;99.90;;;14.35;100.00;101345.09;5126160;29;20137;-82
2022/09/19 07:03:08;;;;;;;6.43;1.23;;;14.60;99.90;;;14.29;100.00;101339.66;5127711;28;20082;-85
2022/09/19 07:05:43;;;;;;;3.83;1.17;;;14.50;99.90;;;14.06;100.00;101348.59;5129399;28;20135;-84
2022/09/19 07:08:25;;;;;;;5.43;0.85;;;14.20;99.90;;;13.84;100.00;101347.97;5130271;28;20509;-86
2022/09/19 07:11:00;;;;;;;4.95;1.48;;;13.90;99.90;;;13.69;100.00;101342.28;5132583;28;20035;-87
2022/09/19 07:13:33;;;;;;;3.88;1.05;;;13.80;99.90;;;13.57;100.00;101353.25;5134943;28;20039;-87
2022/09/19 07:16:08;;;;;;;3.05;1.23;;;13.70;99.90;;;13.47;100.00;101350.28;5136474;29;20527;-85
2022/09/19 07:18:42;;;;;;;5.43;1.40;;;13.50;99.90;;;13.54;100.00;101353.13;5128603;29;20039;-84
2022/09/19 07:21:34;;;;;;;7.32;1.45;;;13.60;99.90;;;13.68;100.00;101363.16;5133716;29;20098;-87
2022/09/19 07:24:09;;;;;;;3.22;1.02;;;13.70;99.90;;;13.54;100.00;101362.72;5142640;28;20050;-89
2022/09/19 07:27:05;;;;;;;4.05;1.25;;;13.60;99.90;;;13.43;100.00;101364.09;5125786;29;20043;-79
2022/09/19 07:29:37;;;;;;;3.78;1.20;;;13.50;99.90;;;13.71;100.00;101366.78;5145091;28;20047;-79
2022/09/19 07:32:10;;;;;;;5.93;1.15;;;13.80;99.90;;;14.05;100.00;101368.69;5127936;29;20047;-81
2022/09/19 07:34:45;;;;;;;5.47;1.20;;;14.10;99.90;;;14.32;100.00;101370.31;5129114;29;20122;-80
2022/09/19 07:37:18;;;;;;;3.63;0.93;;;14.30;99.90;;;14.56;100.00;101375.41;5129346;28;20098;-79
2022/09/19 07:39:57;;;;;;;5.72;1.08;;;14.50;99.90;;;14.70;100.00;101376.69;5150403;28;20086;-79
2022/09/19 07:42:38;;;;;;;3.10;1.10;;;14.70;99.90;;;14.80;100.00;101383.06;5145914;28;20047;-79
2022/09/19 07:45:28;;;;;;;4.07;1.30;;;14.80;99.90;;;14.91;100.00;101377.25;5135050;29;20134;-81
2022/09/19 07:48:18;;;;;;;6.20;2.33;;;14.90;99.90;;;15.10;100.00;101388.22;5134797;28;20053;-81
2022/09/19 07:51:16;;;;;;;3.90;1.85;;;15.00;99.90;;;15.17;100.00;101387.53;5133938;29;20039;-80
2022/09/19 07:53:49;;;;;;;5.35;1.30;;;15.10;99.90;;;15.15;100.00;101398.00;5134692;29;20150;-84
2022/09/19 07:56:22;;;;;;;4.47;2.05;;;15.10;99.90;;;15.12;100.00;101408.41;5132561;28;20351;-85
2022/09/19 07:58:54;;;;;;;7.75;1.48;;;15.00;99.90;;;15.15;100.00;101407.63;5132488;29;20497;-83
2022/09/19 08:01:26;;;;;;;8.13;1.35;;;15.00;99.90;;;14.99;100.00;101408.06;5132862;29;20047;-84
2022/09/19 08:04:15;;;;;;;5.53;1.20;;;14.80;99.90;;;14.86;100.00;101417.34;5135459;29;20494;-85
2022/09/19 08:07:00;;;;;;;8.23;1.42;;;14.80;99.90;;;14.61;100.00;101414.06;5136334;29;20054;-86
2022/09/19 08:09:33;;;;;;;3.15;1.00;;;14.60;99.90;;;14.44;100.00;101417.00;5138460;29;20051;-87
2022/09/19 08:12:10;;;;;;;4.32;1.23;;;14.40;99.90;;;14.27;100.00;101416.50;5139229;28;20043;-87
2022/09/19 08:14:53;;;;;;;2.45;0.80;;;14.20;99.90;;;14.53;100.00;101417.28;5135149;29;20394;-88
2022/09/19 08:17:27;;;;;;;4.18;1.08;;;14.20;99.90;;;15.25;100.00;101417.50;5133097;29;20074;-88
2022/09/19 08:20:00;;;;;;;4.03;1.10;;;14.50;99.90;;;15.84;100.00;101420.72;5133215;29;20047;-88
2022/09/19 08:22:34;;;;;;;4.97;1.33;;;14.90;99.90;;;15.94;100.00;101420.09;5133805;28;20047;-88
2022/09/19 08:25:12;;;;;;;3.67;1.02;;;15.10;99.90;;;16.50;100.00;101425.72;5133481;29;20165;-89
2022/09/19 08:27:45;;;;;;;5.82;1.08;;;15.40;99.90;;;16.88;100.00;101425.59;5134153;29;20071;-88
2022/09/19 08:30:18;;;;;;;4.93;1.15;;;15.80;99.90;;;16.85;100.00;101425.56;5134266;29;20050;-87
2022/09/19 08:32:52;;;;;;;5.95;1.90;;;15.90;99.90;;;16.55;100.00;101428.41;5135444;29;20073;-88
2022/09/19 08:35:25;;;;;;;5.63;0.90;;;15.80;99.90;;;16.20;100.00;101423.31;5133069;29;20429;-88
2022/09/19 08:38:01;;;;;;;5.50;1.33;;;15.60;99.90;;;16.16;100.00;101436.34;5131066;29;20059;-82
2022/09/19 08:40:55;;;;;;;6.05;1.25;;;15.60;99.90;;;16.50;100.00;101433.63;5129820;28;20432;-79
2022/09/19 08:43:35;;;;;;;6.22;1.55;;;15.90;99.90;;;16.66;100.00;101439.19;5129918;29;20098;-81
2022/09/19 08:46:14;;;;;;;5.78;1.20;;;16.10;99.90;;;17.01;100.00;101446.03;5129268;29;20055;-80
2022/09/19 08:48:56;;;;;;;8.32;1.45;;;16.40;99.90;;;17.17;100.00;101448.97;5131621;28;20050;-83
2022/09/19 08:51:34;;;;;;;4.57;1.05;;;16.60;99.90;;;16.94;100.00;101446.78;5133392;29;20047;-86
2022/09/19 08:54:16;;;;;;;5.45;1.02;;;16.60;99.90;;;16.59;100.00;101442.53;5134745;29;20143;-88
2022/09/19 08:56:50;;;;;;;7.78;1.40;;;16.40;99.90;;;16.29;100.00;101448.91;5135418;29;20054;-86
2022/09/19 08:59:26;;;;;;;4.50;1.20;;;16.10;99.90;;;15.90;100.00;101444.53;5133195;29;20047;-87
2022/09/19 09:02:18;;;;;;;5.13;1.60;;;15.80;99.90;;;15.59;100.00;101448.16;5134137;29;20468;-86
2022/09/19 09:05:45;;;;;;;6.78;1.20;;;15.50;99.90;;;15.30;100.00;101459.66;5136322;28;20524;-86
2022/09/19 09:08:35;;;;;;;5.43;1.25;;;15.20;99.90;;;15.42;100.00;101450.34;5134712;29;20058;-87
2022/09/19 09:11:42;;;;;;;5.85;1.13;;;15.10;99.90;;;15.78;100.00;101444.28;5135142;28;20083;-86
2022/09/19 09:14:26;;;;;;;5.07;0.90;;;15.40;99.90;;;15.87;100.00;101449.75;5135399;28;20043;-86
2022/09/19 09:17:13;;;;;;;1.95;1.00;;;15.50;99.90;;;15.83;100.00;101454.88;5134114;29;20140;-88
2022/09/19 09:20:12;;;;;;;2.67;0.75;;;15.40;99.90;;;15.85;100.00;101451.44;5135313;29;20043;-86
2022/09/19 09:22:49;;;;;;;3.92;1.02;;;15.50;99.90;;;16.00;100.00;101448.28;5133728;29;20110;-87
2022/09/19 09:25:46;;;;;;;7.18;1.25;;;15.60;99.90;;;16.18;100.00;101448.72;5133356;29;20046;-86
2022/09/19 09:28:30;;;;;;;4.82;1.10;;;15.70;99.90;;;16.28;100.00;101447.16;5133742;29;20433;-87
2022/09/19 09:31:33;;;;;;;4.72;1.00;;;15.80;99.90;;;16.29;100.00;101460.31;5134668;28;20055;-87
2022/09/19 09:34:28;;;;;;;3.45;1.00;;;15.80;99.90;;;16.22;100.00;101452.28;5135004;29;20047;-88
2022/09/19 09:37:04;;;;;;;4.78;1.20;;;15.80;99.90;;;16.13;100.00;101449.44;5134653;28;20048;-85
2022/09/19 09:39:59;;;;;;;2.30;0.70;;;15.80;99.90;;;16.04;100.00;101457.13;5129432;29;20486;-89
2022/09/19 09:42:41;;;;;;;7.65;1.20;;;15.70;99.90;;;16.00;100.00;101453.53;5145310;28;20055;-88
2022/09/19 09:45:30;;;;;;;4.07;1.00;;;15.70;99.90;;;16.11;100.00;101456.44;5158056;23;20059;-82
2022/09/19 09:48:15;;;;;;;2.30;0.93;;;15.70;99.90;;;16.29;100.00;101454.19;5104652;29;20052;-81
2022/09/19 09:51:14;;;;;;;6.28;1.45;;;15.90;99.90;;;16.68;100.00;101458.50;5083981;29;20098;-83
2022/09/19 09:54:01;;;;;;;4.22;1.02;;;16.20;99.90;;;16.93;100.00;101462.56;5083841;29;20091;-83
2022/09/19 09:56:43;;;;;;;7.05;1.55;;;16.40;99.90;;;16.88;100.00;101457.19;5083465;29;20107;-81
2022/09/19 10:05:36;;;;;;;7.18;1.67;;;16.50;99.90;;;16.87;100.00;101455.41;5084163;29;20043;-83
2022/09/19 10:08:22;;;;;;;8.75;1.58;;;16.50;99.90;;;16.74;100.00;101459.56;5082978;29;20058;-84
2022/09/19 10:11:09;;;;;;;7.97;1.73;;;16.50;99.90;;;16.58;100.00;101449.56;5067576;29;20139;-86
2022/09/19 10:13:48;;;;;;;4.97;1.05;;;16.30;99.90;;;16.78;100.00;101455.25;5067210;29;20159;-79
2022/09/19 10:16:23;;;;;;;3.13;0.88;;;16.40;99.90;;;17.02;100.00;101449.59;5068018;29;20502;-79
2022/09/19 10:19:08;;;;;;;7.32;1.35;;;16.60;99.90;;;17.21;100.00;101456.94;5098774;29;20055;-79
2022/09/19 10:21:41;;;;;;;6.63;1.02;;;16.80;99.90;;;17.43;100.00;101444.16;5082573;29;20048;-79
2022/09/19 10:24:54;;;;;;;9.70;1.50;;;17.00;99.90;;;17.45;100.00;101448.59;5098915;29;20060;-82
2022/09/19 10:27:41;;;;;;;5.55;1.30;;;17.10;99.90;;;17.42;100.00;101443.28;5084553;29;20048;-82
2022/09/19 10:30:57;;;;;;;5.97;1.08;;;17.10;99.90;;;17.52;100.00;101442.56;5083243;29;20052;-82
2022/09/19 10:33:41;;;;;;;5.28;1.10;;;17.20;99.90;;;17.56;100.00;101441.75;5085623;29;20055;-81
2022/09/19 10:36:25;;;;;;;4.22;1.00;;;17.20;99.90;;;17.59;100.00;101444.44;5087033;29;20055;-81
2022/09/19 10:39:00;;;;;;;4.82;0.80;;;17.20;99.90;;;17.66;100.00;101431.34;5102217;29;20146;-82
2022/09/19 10:41:40;;;;;;;3.47;1.08;;;17.30;99.90;;;17.75;100.00;101434.19;5102872;29;20317;-81
2022/09/19 10:44:22;;;;;;;4.68;0.90;;;17.40;99.90;;;17.73;100.00;101435.88;5103191;29;20058;-82
2022/09/19 10:47:01;;;;;;;5.20;1.00;;;17.30;99.90;;;17.67;99.97;101430.47;5102014;29;20059;-82
2022/09/19 10:50:05;;;;;;;5.28;1.10;;;17.30;99.90;;;17.82;100.00;101425.50;5102803;29;20051;-82
2022/09/19 10:53:03;;;;;;;4.68;1.10;;;17.40;99.90;;;18.05;100.00;101423.19;5088808;29;20058;-81
2022/09/19 10:55:38;;;;;;;5.53;0.88;;;17.60;99.90;;;18.13;100.00;101422.44;5086532;29;20099;-81
2022/09/19 10:58:22;;;;;;;4.28;1.00;;;17.70;99.90;;;18.27;99.66;101416.47;5101831;29;20056;-82
2022/09/19 11:01:06;;;;;;;7.75;1.40;;;17.80;99.90;;;18.15;97.08;101418.06;5101861;29;20107;-81
2022/09/19 11:04:05;;;;;;;4.35;0.88;;;17.80;99.90;;;17.93;98.51;101421.28;5087781;29;20051;-81
2022/09/19 11:06:58;;;;;;;4.28;0.90;;;17.70;99.90;;;17.79;99.07;101409.59;5099769;29;20091;-82
2022/09/19 11:09:38;;;;;;;5.40;1.48;;;17.50;99.90;;;17.70;97.60;101415.59;5083978;29;20495;-83